createdAt,value
2023-12-11T00:01:37.809Z,12.17
2023-12-11T00:04:05.570Z,16.77
2023-12-11T00:06:33.077Z,11.87
2023-12-11T00:09:00.530Z,17.87
2023-12-11T00:11:27.979Z,13.57
2023-12-11T00:13:55.343Z,13.03
2023-12-11T00:16:22.896Z,18.03
2023-12-11T00:18:55.179Z,14.57
2023-12-11T00:21:22.782Z,12.77
2023-12-11T00:23:50.577Z,14.40
2023-12-11T00:26:18.967Z,14.93
2023-12-11T00:28:50.988Z,15.30
2023-12-11T00:31:19.789Z,12.53
2023-12-11T00:33:47.335Z,13.20
2023-12-11T00:36:14.752Z,14.30
2023-12-11T00:38:42.125Z,17.20
2023-12-11T00:41:10.113Z,13.33
2023-12-11T00:43:44.877Z,14.73
2023-12-11T00:46:24.510Z,14.47
2023-12-11T00:48:58.363Z,20.33
2023-12-11T00:51:25.854Z,19.87
2023-12-11T00:53:53.321Z,15.33
2023-12-11T00:56:20.985Z,18.10
2023-12-11T00:58:53.681Z,19.03
2023-12-11T01:01:21.122Z,13.37
2023-12-11T01:03:48.780Z,17.77
2023-12-11T01:06:16.100Z,14.83
2023-12-11T01:08:43.357Z,16.80
2023-12-11T01:11:13.625Z,15.90
2023-12-11T01:13:43.157Z,17.10
2023-12-11T01:16:10.419Z,18.97
2023-12-11T01:18:38.870Z,14.33
2023-12-11T01:21:06.607Z,17.40
2023-12-11T01:23:33.953Z,12.77
2023-12-11T01:26:03.815Z,14.60
2023-12-11T01:28:34.174Z,17.67
2023-12-11T01:31:01.843Z,15.23
2023-12-11T01:33:29.250Z,14.27
2023-12-11T01:35:56.585Z,18.20
2023-12-11T01:38:23.857Z,16.07
2023-12-11T01:40:51.359Z,19.20
2023-12-11T01:43:21.958Z,13.83
2023-12-11T01:46:10.111Z,15.17
2023-12-11T01:48:37.920Z,17.00
2023-12-11T01:51:08.961Z,16.23
2023-12-11T01:53:36.533Z,13.60
2023-12-11T01:56:04.364Z,15.53
2023-12-11T01:58:31.990Z,17.60
2023-12-11T02:01:00.317Z,17.27
2023-12-11T02:03:28.395Z,13.87
2023-12-11T02:05:55.783Z,17.20
2023-12-11T02:08:23.046Z,16.10
2023-12-11T02:10:53.122Z,15.63
2023-12-11T02:13:22.060Z,16.10
2023-12-11T02:15:52.026Z,16.80
2023-12-11T02:18:21.527Z,17.90
2023-12-11T02:20:49.094Z,14.60
2023-12-11T02:23:48.387Z,13.03
2023-12-11T02:26:20.373Z,16.63
2023-12-11T02:28:47.772Z,16.83
2023-12-11T02:31:15.874Z,13.20
2023-12-11T02:33:43.499Z,14.43
2023-12-11T02:36:11.366Z,19.80
2023-12-11T02:38:38.695Z,10.73
2023-12-11T02:41:06.488Z,14.80
2023-12-11T02:43:35.049Z,12.87
2023-12-11T02:46:04.188Z,10.57
2023-12-11T02:48:32.420Z,14.10
2023-12-11T02:51:00.026Z,14.57
2023-12-11T02:53:27.531Z,11.43
2023-12-11T02:55:54.735Z,14.93
2023-12-11T02:58:21.920Z,16.57
2023-12-11T03:00:49.326Z,11.57
2023-12-11T03:03:16.713Z,13.63
2023-12-11T03:05:44.106Z,14.53
2023-12-11T03:08:11.466Z,18.90
2023-12-11T03:10:38.724Z,12.43
2023-12-11T03:13:05.952Z,17.23
2023-12-11T03:15:33.562Z,21.07
2023-12-11T03:18:04.734Z,15.63
2023-12-11T03:20:32.094Z,14.77
2023-12-11T03:39:28.551Z,13.40
2023-12-11T03:41:56.487Z,17.57
2023-12-11T03:44:23.745Z,11.60
2023-12-11T03:46:51.056Z,14.20
2023-12-11T03:49:19.695Z,13.80
2023-12-11T03:51:48.213Z,13.27
2023-12-11T03:54:15.747Z,15.93
2023-12-11T03:56:43.510Z,13.43
2023-12-11T03:59:12.462Z,12.77
2023-12-11T04:01:41.262Z,15.63
2023-12-11T04:04:08.627Z,16.33
2023-12-11T04:06:36.658Z,15.67
2023-12-11T04:09:05.977Z,12.83
2023-12-11T04:11:34.222Z,12.13
2023-12-11T04:14:04.369Z,16.23
2023-12-11T04:16:33.678Z,15.57
2023-12-11T04:19:01.269Z,13.90
2023-12-11T04:21:28.875Z,14.70
2023-12-11T04:23:57.170Z,14.90
2023-12-11T04:26:24.470Z,13.80
2023-12-11T04:28:54.604Z,12.33
2023-12-11T04:31:24.788Z,16.80
2023-12-11T04:33:52.623Z,12.47
2023-12-11T04:36:23.036Z,12.20
2023-12-11T04:38:50.297Z,11.47
2023-12-11T04:41:17.583Z,10.67
2023-12-11T04:43:44.771Z,12.33
2023-12-11T04:55:46.678Z,12.27
2023-12-11T04:58:14.027Z,13.10
2023-12-11T05:00:41.308Z,12.57
2023-12-11T05:03:08.514Z,13.90
2023-12-11T05:05:37.262Z,15.33
2023-12-11T05:08:04.706Z,13.23
2023-12-11T05:10:35.374Z,11.90
2023-12-11T05:13:02.867Z,10.87
2023-12-11T05:15:30.237Z,10.57
2023-12-11T05:17:57.402Z,12.43
2023-12-11T05:20:24.642Z,10.97
2023-12-11T05:22:52.191Z,13.27
2023-12-11T05:25:20.520Z,12.57
2023-12-11T05:27:47.812Z,9.90
2023-12-11T05:30:15.200Z,13.27
2023-12-11T05:32:43.423Z,12.73
2023-12-11T05:35:12.861Z,12.77
2023-12-11T05:37:40.026Z,11.63
2023-12-11T05:40:21.774Z,10.73
2023-12-11T05:42:52.702Z,15.10
2023-12-11T05:45:20.049Z,10.60
2023-12-11T05:47:47.712Z,12.83
2023-12-11T05:50:15.386Z,11.90
2023-12-11T05:52:42.815Z,15.47
2023-12-11T05:55:10.416Z,11.23
2023-12-11T05:57:37.910Z,12.50
2023-12-11T06:00:06.966Z,9.30
2023-12-11T06:02:34.309Z,12.47
2023-12-11T06:05:01.697Z,13.17
2023-12-11T06:07:29.506Z,12.33
2023-12-11T06:09:56.955Z,11.80
2023-12-11T06:12:24.184Z,9.87
2023-12-11T06:14:51.956Z,10.73
2023-12-11T06:17:19.365Z,11.33
2023-12-11T06:19:46.810Z,12.00
2023-12-11T06:22:14.128Z,11.30
2023-12-11T06:24:45.367Z,12.47
2023-12-11T06:27:15.200Z,13.10
2023-12-11T06:29:44.949Z,12.60
2023-12-11T06:32:12.777Z,11.20
2023-12-11T06:34:40.139Z,12.20
2023-12-11T06:37:07.478Z,12.33
2023-12-11T06:39:35.094Z,12.70
2023-12-11T06:42:05.235Z,13.70
2023-12-11T06:44:42.929Z,14.03
2023-12-11T06:47:10.945Z,11.33
2023-12-11T06:49:39.005Z,13.00
2023-12-11T06:52:07.519Z,12.73
2023-12-11T06:59:21.982Z,12.37
2023-12-11T07:01:49.249Z,9.23
2023-12-11T07:08:26.542Z,9.37
2023-12-11T07:10:53.814Z,15.37
2023-12-11T07:13:21.152Z,11.33
2023-12-11T07:15:48.606Z,16.20
2023-12-11T07:18:16.691Z,11.83
2023-12-11T07:20:44.069Z,15.47
2023-12-11T07:23:13.916Z,14.27
2023-12-11T07:25:41.855Z,12.30
2023-12-11T07:28:09.196Z,13.23
2023-12-11T07:30:36.456Z,11.20
2023-12-11T07:33:04.125Z,13.00
2023-12-11T07:35:31.717Z,15.33
2023-12-11T07:38:02.201Z,14.27
2023-12-11T07:40:30.064Z,14.20
2023-12-11T07:42:57.243Z,13.57
2023-12-11T07:45:25.380Z,8.93
2023-12-11T07:47:52.813Z,14.90
2023-12-11T07:50:20.615Z,13.37
2023-12-11T07:52:47.812Z,11.47
2023-12-11T07:55:15.188Z,12.00
2023-12-11T07:57:42.872Z,11.67
2023-12-11T08:00:10.866Z,14.63
2023-12-11T08:02:38.401Z,11.77
2023-12-11T08:05:06.094Z,13.70
2023-12-11T08:07:33.737Z,14.30
2023-12-11T08:10:01.977Z,13.97
2023-12-11T08:12:29.441Z,18.53
2023-12-11T08:14:57.198Z,14.27
2023-12-11T08:17:25.786Z,14.10
2023-12-11T08:19:56.335Z,15.37
2023-12-11T08:22:23.944Z,13.23
2023-12-11T08:24:51.590Z,13.33
2023-12-11T08:27:18.900Z,10.37
2023-12-11T08:29:47.436Z,9.33
2023-12-11T08:32:14.743Z,13.03
2023-12-11T08:34:42.428Z,10.17
2023-12-11T08:37:12.424Z,13.23
2023-12-11T08:39:40.078Z,11.07
2023-12-11T08:42:07.456Z,12.07
2023-12-11T08:44:34.683Z,12.93
2023-12-11T08:47:02.549Z,14.27
2023-12-11T08:49:29.969Z,10.87
2023-12-11T08:51:57.246Z,14.40
2023-12-11T08:54:24.450Z,13.90
2023-12-11T08:56:52.490Z,17.33
2023-12-11T08:59:19.711Z,13.33
2023-12-11T09:01:47.986Z,12.23
2023-12-11T09:04:15.492Z,12.90
2023-12-11T09:06:43.010Z,15.43
2023-12-11T09:09:10.197Z,10.87
2023-12-11T09:11:37.526Z,11.13
2023-12-11T09:14:04.814Z,10.43
2023-12-11T09:16:32.144Z,13.07
2023-12-11T09:18:59.461Z,11.30
2023-12-11T09:21:26.743Z,11.00
2023-12-11T09:23:54.102Z,9.93
2023-12-11T09:26:21.368Z,14.23
2023-12-11T09:28:52.137Z,10.60
2023-12-11T09:31:24.933Z,15.27
2023-12-11T09:33:52.560Z,11.50
2023-12-11T09:36:20.878Z,9.73
2023-12-11T09:38:48.134Z,14.30
2023-12-11T09:41:15.342Z,11.97
2023-12-11T09:43:43.955Z,10.80
2023-12-11T09:46:17.475Z,12.33
2023-12-11T09:48:46.108Z,12.27
2023-12-11T09:51:16.553Z,9.37
2023-12-11T09:53:44.575Z,8.67
2023-12-11T09:56:14.367Z,7.63
2023-12-11T09:58:45.090Z,9.20
2023-12-11T10:01:17.293Z,13.27
2023-12-11T10:03:47.739Z,11.07
2023-12-11T10:06:16.790Z,7.37
2023-12-11T10:08:48.092Z,11.27
2023-12-11T10:11:17.397Z,10.87
2023-12-11T10:13:45.097Z,11.17
2023-12-11T10:16:34.160Z,11.83
2023-12-11T10:19:03.249Z,8.00
2023-12-11T10:21:41.545Z,8.40
2023-12-11T10:28:11.464Z,9.50
2023-12-11T10:30:57.751Z,8.67
2023-12-11T10:33:28.671Z,7.73
2023-12-11T10:36:14.214Z,8.03
2023-12-11T10:38:42.542Z,6.63
2023-12-11T10:41:25.773Z,5.60
2023-12-11T10:44:07.796Z,9.43
2023-12-11T10:46:40.839Z,9.03
2023-12-11T10:49:08.575Z,7.33
2023-12-11T10:51:38.056Z,6.63
2023-12-11T10:54:05.439Z,10.63
2023-12-11T10:56:33.553Z,10.43
2023-12-11T10:59:01.065Z,6.73
2023-12-11T11:01:29.308Z,7.70
2023-12-11T11:03:56.837Z,6.53
2023-12-11T11:06:29.681Z,7.27
2023-12-11T11:09:06.671Z,6.03
2023-12-11T11:11:42.801Z,5.80
2023-12-11T11:14:48.787Z,6.13
2023-12-11T11:17:17.892Z,6.07
2023-12-11T11:20:19.090Z,9.47
2023-12-11T11:22:47.742Z,5.53
2023-12-11T11:25:34.865Z,6.60
2023-12-11T11:28:03.156Z,6.30
2023-12-11T11:30:55.980Z,4.60
2023-12-11T11:33:25.211Z,4.30
2023-12-11T11:35:55.945Z,5.03
2023-12-11T11:39:00.118Z,9.70
2023-12-11T11:41:30.699Z,8.50
2023-12-11T11:44:07.708Z,7.20
2023-12-11T11:46:59.043Z,5.43
2023-12-11T11:49:33.664Z,8.53
2023-12-11T11:52:09.335Z,6.77
2023-12-11T11:54:41.004Z,8.27
2023-12-11T11:57:08.652Z,7.90
2023-12-11T11:59:46.071Z,8.10
2023-12-11T12:02:13.624Z,5.23
2023-12-11T12:04:40.907Z,3.60
2023-12-11T12:07:08.489Z,1.73
2023-12-11T12:09:35.899Z,2.13
2023-12-11T12:12:05.810Z,2.97
2023-12-11T12:14:33.733Z,5.50
2023-12-11T12:17:10.245Z,3.90
2023-12-11T12:19:38.236Z,2.43
2023-12-11T12:22:06.317Z,3.03
2023-12-11T12:24:44.328Z,2.70
2023-12-11T12:27:14.225Z,3.03
2023-12-11T12:29:42.292Z,4.47
2023-12-11T12:32:11.348Z,3.50
2023-12-11T12:34:40.251Z,2.40
2023-12-11T12:37:08.600Z,2.83
2023-12-11T12:39:36.706Z,3.40
2023-12-11T12:42:07.600Z,2.87
2023-12-11T12:44:41.330Z,3.43
2023-12-11T12:47:11.002Z,1.93
2023-12-11T12:49:38.489Z,2.03
2023-12-11T12:52:06.461Z,4.27
2023-12-11T12:54:50.894Z,3.23
2023-12-11T12:57:18.810Z,2.17
2023-12-11T12:59:47.700Z,3.57
2023-12-11T13:02:17.974Z,3.63
2023-12-11T13:04:58.116Z,2.63
2023-12-11T13:07:27.621Z,3.23
2023-12-11T13:09:57.882Z,3.50
2023-12-11T13:12:27.718Z,3.67
2023-12-11T13:14:57.078Z,4.13
2023-12-11T13:17:24.601Z,3.80
2023-12-11T13:19:52.752Z,1.97
2023-12-11T13:22:20.145Z,3.60
2023-12-11T13:24:47.601Z,2.50
2023-12-11T13:27:15.097Z,3.67
2023-12-11T13:29:42.329Z,3.73
2023-12-11T13:32:09.509Z,3.90
2023-12-11T13:34:36.848Z,1.60
2023-12-11T13:37:04.361Z,4.53
2023-12-11T13:39:32.338Z,4.63
2023-12-11T13:41:59.691Z,5.53
2023-12-11T13:44:27.007Z,6.03
2023-12-11T13:46:56.423Z,5.23
2023-12-11T13:49:24.144Z,7.37
2023-12-11T13:51:51.420Z,4.20
2023-12-11T13:54:18.617Z,5.73
2023-12-11T13:56:47.755Z,2.73
2023-12-11T13:59:16.025Z,3.30
2023-12-11T14:01:43.317Z,6.13
2023-12-11T14:04:10.727Z,5.73
2023-12-11T14:06:37.951Z,3.80
2023-12-11T14:09:05.364Z,3.00
2023-12-11T14:11:32.607Z,3.20
2023-12-11T14:13:59.782Z,4.27
2023-12-11T14:16:27.457Z,2.80
2023-12-11T14:18:54.885Z,3.87
2023-12-11T14:21:22.505Z,6.13
2023-12-11T14:23:49.881Z,7.07
2023-12-11T14:26:17.485Z,5.40
2023-12-11T14:28:44.838Z,4.90
2023-12-11T14:31:12.956Z,4.70
2023-12-11T14:33:40.983Z,7.47
2023-12-11T14:36:15.479Z,5.07
2023-12-11T14:38:52.886Z,7.20
2023-12-11T14:41:20.134Z,6.80
2023-12-11T14:43:47.356Z,7.33
2023-12-11T14:46:15.098Z,6.53
2023-12-11T14:48:42.396Z,6.77
2023-12-11T14:51:09.811Z,5.77
2023-12-11T14:53:37.022Z,6.10
2023-12-11T14:56:04.896Z,6.47
2023-12-11T14:58:36.176Z,7.50
2023-12-11T15:01:05.563Z,9.40
2023-12-11T15:03:33.998Z,5.57
2023-12-11T15:06:03.084Z,6.37
2023-12-11T15:08:31.047Z,6.40
2023-12-11T15:10:58.458Z,5.33
2023-12-11T15:13:26.038Z,5.87
2023-12-11T15:15:53.792Z,5.53
2023-12-11T15:18:21.163Z,2.97
2023-12-11T15:20:48.960Z,4.77
2023-12-11T15:23:17.471Z,6.67
2023-12-11T15:25:45.101Z,6.47
2023-12-11T15:28:12.282Z,4.87
2023-12-11T15:30:39.463Z,4.20
2023-12-11T15:33:09.247Z,4.47
2023-12-11T15:35:38.216Z,5.13
2023-12-11T15:38:05.811Z,7.10
2023-12-11T15:40:33.103Z,5.93
2023-12-11T15:43:00.427Z,5.93
2023-12-11T15:45:27.576Z,3.23
2023-12-11T15:48:01.431Z,5.80
2023-12-11T15:50:32.202Z,6.33
2023-12-11T15:53:00.217Z,4.90
2023-12-11T15:55:27.581Z,3.90
2023-12-11T15:57:55.216Z,5.53
2023-12-11T16:00:22.817Z,3.87
2023-12-11T16:15:19.818Z,3.47
2023-12-11T16:17:47.113Z,5.60
2023-12-11T16:20:14.571Z,4.67
2023-12-11T16:22:41.890Z,4.53
2023-12-11T16:25:11.705Z,5.77
2023-12-11T16:27:39.714Z,5.30
2023-12-11T16:30:11.250Z,6.00
2023-12-11T16:32:38.398Z,6.27
2023-12-11T16:35:09.093Z,6.80
2023-12-11T16:37:36.861Z,8.67
2023-12-11T16:40:08.710Z,6.47
2023-12-11T16:42:39.499Z,6.20
2023-12-11T16:45:11.984Z,6.00
2023-12-11T16:47:39.481Z,6.43
2023-12-11T16:50:09.889Z,5.73
2023-12-11T16:52:37.328Z,8.03
2023-12-11T16:55:05.427Z,6.77
2023-12-11T16:57:32.581Z,8.67
2023-12-11T16:59:59.667Z,10.33
2023-12-11T17:02:27.034Z,8.13
2023-12-11T17:04:54.230Z,5.50
2023-12-11T17:07:21.424Z,6.97
2023-12-11T17:09:48.744Z,10.63
2023-12-11T17:12:16.118Z,7.97
2023-12-11T17:14:44.304Z,7.80
2023-12-11T17:17:11.480Z,6.87
2023-12-11T17:19:38.844Z,7.10
2023-12-11T17:22:06.776Z,5.57
2023-12-11T17:24:39.346Z,8.63
2023-12-11T17:27:07.187Z,8.83
2023-12-11T17:29:34.999Z,7.80
2023-12-11T17:32:02.426Z,8.13
2023-12-11T17:34:29.945Z,10.13
2023-12-11T17:36:57.321Z,7.87
2023-12-11T17:39:24.728Z,7.63
2023-12-11T17:41:52.409Z,9.87
2023-12-11T17:44:19.559Z,8.23
2023-12-11T17:47:01.957Z,10.80
2023-12-11T17:49:35.982Z,8.07
2023-12-11T17:52:03.959Z,8.00
2023-12-11T17:54:34.078Z,6.33
2023-12-11T17:57:01.241Z,9.27
2023-12-11T17:59:34.596Z,9.47
2023-12-11T18:02:07.688Z,10.43
2023-12-11T18:04:36.594Z,8.03
2023-12-11T18:08:00.089Z,5.70
2023-12-11T18:10:29.445Z,9.37
2023-12-11T18:12:57.851Z,8.53
2023-12-11T18:16:25.662Z,5.33
2023-12-11T18:18:53.499Z,7.30
2023-12-11T18:21:20.847Z,7.73
2023-12-11T18:23:48.177Z,7.70
2023-12-11T18:26:15.743Z,9.17
2023-12-11T18:28:43.046Z,11.30
2023-12-11T18:31:10.505Z,8.67
2023-12-11T18:33:37.974Z,6.73
2023-12-11T18:36:05.949Z,6.57
2023-12-11T18:38:35.967Z,8.40
2023-12-11T18:41:04.278Z,10.53
2023-12-11T18:43:31.904Z,10.97
2023-12-11T18:45:59.108Z,7.90
2023-12-11T18:48:27.224Z,7.60
2023-12-11T18:50:54.504Z,5.27
2023-12-11T18:53:24.523Z,9.20
2023-12-11T18:56:00.764Z,5.70
2023-12-11T18:58:29.844Z,7.30
2023-12-11T19:00:57.736Z,7.87
2023-12-11T19:03:25.243Z,7.20
2023-12-11T19:05:52.583Z,6.53
2023-12-11T19:08:19.815Z,7.90
2023-12-11T19:10:47.497Z,7.13
2023-12-11T19:13:14.740Z,6.13
2023-12-11T19:15:41.953Z,5.83
2023-12-11T19:18:09.341Z,5.27
2023-12-11T19:20:36.701Z,4.13
2023-12-11T19:23:03.845Z,5.23
2023-12-11T19:25:31.333Z,7.60
2023-12-11T19:27:59.218Z,6.47
2023-12-11T19:30:28.006Z,6.73
2023-12-11T19:32:55.396Z,7.30
2023-12-11T19:35:22.916Z,5.97
2023-12-11T19:37:50.174Z,5.63
2023-12-11T19:40:17.949Z,5.93
2023-12-11T19:42:48.552Z,7.60
2023-12-11T19:45:16.858Z,5.57
2023-12-11T19:47:46.211Z,6.00
2023-12-11T19:50:13.650Z,6.70
2023-12-11T19:52:50.621Z,5.53
2023-12-11T19:55:19.338Z,6.50
2023-12-11T19:57:46.757Z,7.37
2023-12-11T20:00:14.798Z,7.07
2023-12-11T20:02:42.387Z,6.60
2023-12-11T20:05:09.808Z,9.67
2023-12-11T20:07:37.539Z,5.20
2023-12-11T20:10:05.519Z,6.50
2023-12-11T20:12:35.144Z,7.70
2023-12-11T20:15:02.961Z,6.23
2023-12-11T20:17:30.688Z,8.07
2023-12-11T20:20:01.269Z,7.00
2023-12-11T20:22:28.584Z,8.07
2023-12-11T20:24:56.151Z,6.17
2023-12-11T20:27:23.438Z,6.70
2023-12-11T20:29:51.150Z,6.27
2023-12-11T20:32:18.925Z,7.57
2023-12-11T20:34:46.853Z,6.80
2023-12-11T20:37:14.313Z,8.73
2023-12-11T20:39:41.491Z,8.77
2023-12-11T20:42:08.789Z,6.80
2023-12-11T20:44:35.988Z,7.53
2023-12-11T20:47:03.438Z,7.87
2023-12-11T20:49:30.806Z,8.07
2023-12-11T20:51:58.353Z,8.63
2023-12-11T20:54:25.686Z,7.80
2023-12-11T20:56:53.672Z,7.90
2023-12-11T20:59:20.956Z,9.20
2023-12-11T21:01:50.040Z,7.57
2023-12-11T21:04:19.768Z,6.33
2023-12-11T21:06:47.616Z,7.97
2023-12-11T21:09:17.111Z,6.60
2023-12-11T21:11:45.322Z,8.27
2023-12-11T21:14:15.152Z,6.00
2023-12-11T21:16:42.492Z,7.47
2023-12-11T21:19:09.869Z,7.30
2023-12-11T21:21:37.376Z,6.97
2023-12-11T21:24:05.138Z,8.97
2023-12-11T21:26:33.484Z,6.60
2023-12-11T21:29:00.907Z,8.13
2023-12-11T21:31:30.704Z,8.73
2023-12-11T21:33:59.179Z,7.00
2023-12-11T21:36:30.961Z,8.03
2023-12-11T21:38:59.704Z,8.97
2023-12-11T21:41:30.709Z,9.23
2023-12-11T21:43:59.981Z,5.77
2023-12-11T21:46:27.517Z,5.83
2023-12-11T21:48:58.694Z,6.77
2023-12-11T21:51:30.540Z,6.93
2023-12-11T21:53:58.014Z,6.33
2023-12-11T21:56:26.734Z,7.93
2023-12-11T21:58:54.223Z,6.97
2023-12-11T22:01:21.547Z,6.33
2023-12-11T22:03:49.105Z,5.83
2023-12-11T22:06:16.722Z,6.60
2023-12-11T22:08:43.819Z,6.13
2023-12-11T22:11:15.507Z,7.03
2023-12-11T22:13:49.238Z,4.77
2023-12-11T22:16:17.310Z,7.50
2023-12-11T22:18:48.637Z,6.57
2023-12-11T22:21:26.911Z,6.17
2023-12-11T22:23:54.401Z,6.73
2023-12-11T22:26:22.834Z,4.83
2023-12-11T22:28:50.136Z,5.53
2023-12-11T22:31:17.374Z,6.67
2023-12-11T22:33:44.650Z,6.53
2023-12-11T22:36:24.756Z,7.37
2023-12-11T22:39:48.423Z,7.40
2023-12-11T22:42:34.741Z,7.53
2023-12-11T22:45:02.333Z,4.90
2023-12-11T22:47:29.920Z,5.63
2023-12-11T22:49:57.563Z,5.97
2023-12-11T22:52:24.756Z,6.23
2023-12-11T22:54:51.839Z,6.60
2023-12-11T22:57:19.332Z,5.13
2023-12-11T22:59:46.772Z,4.57
2023-12-11T23:02:14.365Z,4.50
2023-12-11T23:04:42.111Z,6.17
2023-12-11T23:07:09.702Z,5.23
2023-12-11T23:09:41.648Z,8.80
2023-12-11T23:12:09.185Z,5.63
2023-12-11T23:14:36.423Z,4.30
2023-12-11T23:17:04.522Z,4.47
2023-12-11T23:19:31.943Z,5.10
2023-12-11T23:22:02.408Z,6.10
2023-12-11T23:24:29.696Z,7.17
2023-12-11T23:26:57.204Z,6.37
2023-12-11T23:29:24.359Z,4.87
2023-12-11T23:31:51.682Z,5.33
2023-12-11T23:34:19.277Z,6.10
2023-12-11T23:36:46.414Z,7.30
2023-12-11T23:39:13.633Z,6.30
2023-12-11T23:41:42.581Z,6.37
2023-12-11T23:44:10.117Z,5.70
2023-12-11T23:46:37.681Z,6.43
2023-12-11T23:49:05.627Z,7.47
2023-12-11T23:51:33.117Z,6.77
2023-12-11T23:54:00.849Z,5.47
2023-12-11T23:56:28.405Z,6.13
2023-12-11T23:58:55.615Z,5.43
